Time;durP1;ratioP1;P1;durP2;ratioP2;P2;SDS_P1;SDS_P2;PMS_P1;PMS_P2;Temp;Humidity;BMP_temperature;BMP_pressure;BME280_temperature;BME280_humidity;BME280_pressure;Samples;Min_cycle;Max_cycle;Signal;HPM_P1;HPM_P2
2022/06/18 00:02:13;;;;;;;6.40;4.40;;;;;;;19.75;56.21;100558.05;117351;1183;23455;-56
2022/06/18 00:04:40;;;;;;;5.60;4.30;;;;;;;19.66;56.39;100561.28;117402;1185;23510;-56
2022/06/18 00:07:08;;;;;;;7.40;4.50;;;;;;;19.66;56.32;100558.09;117468;1183;22944;-48
2022/06/18 00:09:42;;;;;;;6.10;4.20;;;;;;;19.63;56.33;100561.63;117427;1183;21972;-56
2022/06/18 00:15:12;;;;;;;5.60;4.30;;;;;;;19.56;56.46;100560.51;117389;1180;22918;-48
2022/06/18 00:17:39;;;;;;;6.90;4.20;;;;;;;19.54;56.54;100564.02;117378;1183;23438;-57
2022/06/18 00:20:06;;;;;;;7.20;4.60;;;;;;;19.50;56.53;100567.36;117428;1185;22983;-48
2022/06/18 00:22:33;;;;;;;7.80;5.10;;;;;;;19.52;56.61;100571.93;117470;1186;21858;-57
2022/06/18 00:25:00;;;;;;;7.40;4.90;;;;;;;19.53;56.76;100575.98;117430;1185;22913;-49
2022/06/18 00:27:28;;;;;;;7.50;4.90;;;;;;;19.51;56.76;100578.54;117328;1185;21854;-56
2022/06/18 00:29:55;;;;;;;8.60;5.20;;;;;;;19.46;56.88;100578.42;117376;1185;24136;-49
2022/06/18 00:32:22;;;;;;;5.60;4.90;;;;;;;19.54;56.82;100579.82;117399;1182;22976;-56
2022/06/18 00:34:48;;;;;;;6.90;4.70;;;;;;;19.61;56.90;100578.80;117460;1183;24187;-49
2022/06/18 00:37:16;;;;;;;9.70;5.00;;;;;;;19.66;56.81;100576.60;117384;1186;21873;-49
2022/06/18 00:39:44;;;;;;;6.50;4.90;;;;;;;19.71;56.70;100582.96;117405;1185;21888;-48
2022/06/18 00:42:26;;;;;;;10.30;5.80;;;;;;;19.71;56.75;100579.04;117393;1184;22954;-56
2022/06/18 00:44:54;;;;;;;5.70;5.10;;;;;;;19.71;56.86;100580.47;117430;1183;21849;-48
2022/06/18 00:47:48;;;;;;;5.80;5.20;;;;;;;19.80;56.67;100573.45;117406;1185;22892;-57
2022/06/18 00:50:24;;;;;;;8.70;5.30;;;;;;;19.76;56.77;100575.60;117398;1182;23438;-56
2022/06/18 00:52:58;;;;;;;6.00;5.00;;;;;;;19.74;56.88;100575.68;117317;1182;21848;-56
2022/06/18 00:55:39;;;;;;;5.50;4.70;;;;;;;19.81;56.84;100571.98;117382;1186;23554;-48
2022/06/18 00:58:15;;;;;;;5.50;4.80;;;;;;;19.89;56.67;100570.20;117413;1189;21849;-47
2022/06/18 01:00:47;;;;;;;5.50;5.00;;;;;;;19.90;56.64;100566.39;117279;1182;24143;-56
2022/06/18 01:03:24;;;;;;;7.30;5.60;;;;;;;19.90;56.62;100569.42;117464;1186;22912;-57
2022/06/18 01:05:52;;;;;;;7.30;5.40;;;;;;;19.88;56.69;100566.52;117453;1186;22909;-54
2022/06/18 01:08:20;;;;;;;6.00;5.40;;;;;;;19.84;56.74;100568.29;117420;1181;21935;-47
2022/06/18 01:10:59;;;;;;;6.60;5.20;;;;;;;19.82;56.71;100566.42;117433;1186;21875;-56
2022/06/18 01:13:29;;;;;;;5.90;5.30;;;;;;;19.81;56.79;100568.63;117384;1185;22934;-58
2022/06/18 01:15:56;;;;;;;8.50;5.70;;;;;;;19.75;56.68;100565.85;117070;1185;23466;-55
2022/06/18 01:18:24;;;;;;;6.40;5.30;;;;;;;19.72;56.71;100563.52;117292;1185;21860;-57
2022/06/18 01:21:01;;;;;;;6.90;5.50;;;;;;;19.68;56.74;100565.45;117342;1185;21905;-48
2022/06/18 01:23:39;;;;;;;9.40;5.50;;;;;;;19.59;56.84;100567.13;117293;1184;21848;-56
2022/06/18 01:26:06;;;;;;;7.70;5.50;;;;;;;19.55;56.96;100567.33;117494;1186;21846;-57
2022/06/18 01:28:33;;;;;;;7.80;5.40;;;;;;;19.59;56.89;100573.35;117371;1185;22904;-50
2022/06/18 01:31:00;;;;;;;7.60;5.50;;;;;;;19.59;56.83;100570.52;117234;1185;22921;-55
2022/06/18 01:33:27;;;;;;;6.60;5.70;;;;;;;19.58;56.73;100575.22;117346;1185;22918;-56
2022/06/18 01:35:54;;;;;;;6.50;5.80;;;;;;;19.55;56.80;100571.61;117394;1183;22913;-57
2022/06/18 01:38:24;;;;;;;6.40;5.50;;;;;;;19.51;56.84;100566.61;117394;1183;23541;-49
2022/06/18 01:44:11;;;;;;;10.90;5.40;;;;;;;19.45;56.67;100572.06;117190;1186;23435;-49
2022/06/18 01:46:38;;;;;;;5.70;5.00;;;;;;;19.39;56.74;100569.52;117364;1182;22567;-56
2022/06/18 01:49:06;;;;;;;7.00;5.80;;;;;;;19.32;56.83;100573.02;117367;1184;22897;-57
2022/06/18 01:51:36;;;;;;;6.20;5.00;;;;;;;19.26;56.88;100581.13;117462;1181;23626;-47
2022/06/18 01:54:07;;;;;;;8.20;5.90;;;;;;;19.21;56.87;100579.17;117419;1186;23585;-56
2022/06/18 01:56:37;;;;;;;7.70;5.80;;;;;;;19.17;56.99;100585.44;117361;1186;21853;-47
2022/06/18 01:59:12;;;;;;;6.10;5.30;;;;;;;19.12;57.07;100586.69;117407;1185;21848;-47
2022/06/18 02:01:41;;;;;;;5.90;5.40;;;;;;;19.10;57.04;100590.02;117407;1183;22986;-55
2022/06/18 02:04:08;;;;;;;7.00;5.30;;;;;;;19.07;57.17;100593.67;117322;1183;23537;-55
2022/06/18 02:06:37;;;;;;;7.50;5.30;;;;;;;19.07;57.25;100596.17;117439;1186;23462;-56
2022/06/18 02:09:12;;;;;;;9.20;5.60;;;;;;;19.06;57.41;100600.33;117350;1183;21916;-55
2022/06/18 02:11:39;;;;;;;8.40;5.90;;;;;;;19.03;57.35;100592.42;117393;1183;21865;-56
2022/06/18 02:14:12;;;;;;;7.30;6.00;;;;;;;19.01;57.51;100597.31;117306;1185;22915;-47
2022/06/18 02:16:42;;;;;;;8.10;6.60;;;;;;;18.99;57.63;100593.70;117365;1186;22983;-55
2022/06/18 02:19:09;;;;;;;7.70;6.40;;;;;;;18.96;57.68;100593.98;117454;1186;21841;-55
2022/06/18 02:21:48;;;;;;;7.50;6.60;;;;;;;18.91;57.86;100594.01;117286;1186;21852;-55
2022/06/18 02:24:15;;;;;;;9.40;7.00;;;;;;;18.81;57.99;100596.89;117427;1183;21859;-55
2022/06/18 02:26:45;;;;;;;9.00;7.70;;;;;;;18.79;57.96;100596.82;117437;1185;23541;-47
2022/06/18 02:29:23;;;;;;;9.50;6.90;;;;;;;18.79;58.06;100594.33;117406;1186;22912;-47
2022/06/18 02:31:51;;;;;;;13.90;7.60;;;;;;;18.78;58.06;100598.10;117450;1183;22246;-47
2022/06/18 02:34:20;;;;;;;9.80;7.10;;;;;;;18.76;58.05;100600.50;117404;1185;24200;-55
2022/06/18 02:36:47;;;;;;;11.40;7.40;;;;;;;18.75;58.05;100606.06;117409;1186;21852;-55
2022/06/18 02:39:38;;;;;;;9.00;8.00;;;;;;;18.75;58.19;100607.31;117407;1185;22617;-47
2022/06/18 02:42:06;;;;;;;;;;;;;;;18.73;58.01;100607.04;117411;1185;22596;-55
2022/06/18 02:44:34;;;;;;;8.60;7.50;;;;;;;18.71;58.17;100611.39;117389;1185;22905;-55
2022/06/18 02:47:06;;;;;;;18.20;8.60;;;;;;;18.68;58.14;100614.18;117340;1185;24157;-55
2022/06/18 02:49:34;;;;;;;8.60;7.70;;;;;;;18.61;58.13;100621.59;117299;1183;22679;-55
2022/06/18 02:52:04;;;;;;;9.40;8.20;;;;;;;18.59;58.23;100626.81;117402;1182;22915;-55
2022/06/18 02:54:31;;;;;;;10.10;9.10;;;;;;;18.56;58.48;100627.98;117390;1186;22780;-47
2022/06/18 02:57:00;;;;;;;11.70;10.00;;;;;;;18.56;58.52;100627.09;117377;1186;23528;-55
2022/06/18 02:59:27;;;;;;;13.50;10.30;;;;;;;18.61;58.64;100624.08;117423;1183;21839;-56
2022/06/18 03:01:54;;;;;;;14.10;11.10;;;;;;;18.65;58.68;100629.39;117230;1182;24158;-55
2022/06/18 03:04:21;;;;;;;13.30;11.10;;;;;;;18.69;58.65;100629.07;117415;1186;22954;-47
2022/06/18 03:06:48;;;;;;;15.50;12.00;;;;;;;18.68;58.86;100624.33;117336;1186;21892;-47
2022/06/18 03:09:15;;;;;;;15.90;12.60;;;;;;;18.80;58.88;100627.33;117330;1183;23563;-47
2022/06/18 03:14:27;;;;;;;16.00;13.70;;;;;;;19.07;58.62;100628.58;117368;1182;23604;-48
2022/06/18 03:16:54;;;;;;;19.60;15.10;;;;;;;19.12;58.56;100625.64;117439;1186;22912;-56
2022/06/18 03:19:40;;;;;;;21.30;15.80;;;;;;;19.19;58.81;100622.50;117391;1185;23696;-56
2022/06/18 03:22:10;;;;;;;18.60;16.20;;;;;;;19.27;58.87;100617.67;117465;1185;24207;-56
2022/06/18 03:24:40;;;;;;;19.30;16.70;;;;;;;19.33;58.92;100614.25;117369;1185;21842;-57
2022/06/18 03:27:12;;;;;;;19.00;16.20;;;;;;;19.29;59.05;100612.12;117295;1185;21907;-48
2022/06/18 03:29:40;;;;;;;21.30;17.60;;;;;;;19.37;59.02;100610.88;117425;1186;21849;-57
2022/06/18 03:32:07;;;;;;;20.00;16.70;;;;;;;19.47;58.78;100606.64;117437;1186;22918;-48
2022/06/18 03:34:34;;;;;;;18.50;16.60;;;;;;;19.52;58.70;100614.27;117326;1185;21849;-48
2022/06/18 03:37:02;;;;;;;19.90;17.20;;;;;;;19.56;58.74;100615.31;117350;1185;21842;-49
2022/06/18 03:39:29;;;;;;;19.80;17.70;;;;;;;19.61;58.68;100617.77;117448;1182;22912;-50
2022/06/18 03:41:56;;;;;;;20.90;18.10;;;;;;;19.63;58.61;100618.39;117316;1186;22915;-57
2022/06/18 03:44:24;;;;;;;23.10;18.40;;;;;;;19.64;58.69;100623.69;117474;1182;22925;-49
2022/06/18 03:46:51;;;;;;;19.40;17.30;;;;;;;19.66;58.71;100626.83;117401;1186;22313;-57
2022/06/18 03:49:24;;;;;;;21.20;18.50;;;;;;;19.69;58.73;100629.34;117336;1185;22914;-57
2022/06/18 03:51:52;;;;;;;24.90;18.60;;;;;;;19.70;58.67;100629.62;117425;1186;23566;-49
2022/06/18 03:54:19;;;;;;;20.40;18.30;;;;;;;19.65;58.81;100627.90;117466;1186;21862;-49
2022/06/18 03:56:46;;;;;;;20.30;18.00;;;;;;;19.61;58.81;100625.80;117370;1183;23897;-57
2022/06/18 03:59:13;;;;;;;22.50;19.00;;;;;;;19.64;58.79;100630.28;117378;1186;22566;-57
2022/06/18 04:01:40;;;;;;;21.80;17.60;;;;;;;19.59;58.91;100640.10;117475;1183;23541;-57
2022/06/18 04:04:09;;;;;;;20.50;17.90;;;;;;;19.64;58.88;100635.96;117427;1186;21921;-49
2022/06/18 04:06:38;;;;;;;20.20;18.10;;;;;;;19.73;58.97;100640.16;117547;1186;21889;-57
2022/06/18 04:09:05;;;;;;;21.40;19.10;;;;;;;19.75;59.12;100640.45;117407;1182;23545;-56
2022/06/18 04:11:32;;;;;;;20.10;18.00;;;;;;;19.85;59.19;100640.54;117410;1180;22915;-56
2022/06/18 04:13:59;;;;;;;20.30;18.20;;;;;;;19.97;59.34;100639.29;117327;1183;21902;-50
2022/06/18 04:16:26;;;;;;;20.20;18.20;;;;;;;20.09;59.38;100641.40;117347;1183;22905;-50
2022/06/18 04:18:53;;;;;;;20.30;18.20;;;;;;;20.20;59.39;100636.22;117388;1186;22899;-56
2022/06/18 04:21:20;;;;;;;21.60;18.00;;;;;;;20.27;59.46;100634.84;117463;1183;22912;-57
2022/06/18 04:23:47;;;;;;;19.00;17.00;;;;;;;20.36;59.34;100632.95;117403;1186;23541;-57
2022/06/18 04:26:14;;;;;;;18.00;16.10;;;;;;;20.42;59.36;100634.65;117392;1186;22609;-56
2022/06/18 04:28:42;;;;;;;18.60;16.60;;;;;;;20.53;59.30;100641.58;117778;1184;22902;-49
2022/06/18 04:31:09;;;;;;;18.90;17.10;;;;;;;20.64;59.39;100642.64;117401;1183;22916;-50
2022/06/18 04:33:36;;;;;;;17.40;15.70;;;;;;;20.71;59.32;100637.30;117436;1185;22966;-56
2022/06/18 04:36:04;;;;;;;16.20;14.60;;;;;;;20.76;59.33;100636.88;117428;1180;22958;-55
2022/06/18 04:38:31;;;;;;;16.80;15.20;;;;;;;20.83;59.47;100634.41;117419;1182;24160;-49
2022/06/18 04:40:58;;;;;;;16.00;14.50;;;;;;;20.90;59.41;100632.78;117357;1186;21823;-56
2022/06/18 04:43:25;;;;;;;16.40;14.70;;;;;;;21.01;59.43;100633.09;117401;1180;22985;-56
2022/06/18 04:45:54;;;;;;;14.90;13.40;;;;;;;21.11;59.46;100638.49;117424;1183;22905;-50
2022/06/18 04:48:21;;;;;;;17.10;13.00;;;;;;;21.14;59.16;100640.48;117460;1183;22509;-50
2022/06/18 04:50:48;;;;;;;13.60;12.00;;;;;;;21.15;59.10;100642.77;117391;1182;22921;-56
2022/06/18 04:53:16;;;;;;;13.80;12.30;;;;;;;21.14;59.02;100644.39;117376;1185;23458;-55
2022/06/18 04:55:43;;;;;;;13.80;12.10;;;;;;;21.15;58.82;100650.63;117392;1183;21836;-54
2022/06/18 04:58:10;;;;;;;13.40;12.20;;;;;;;21.09;58.76;100652.52;117404;1182;23570;-50
2022/06/18 05:00:38;;;;;;;14.30;12.50;;;;;;;21.03;58.79;100658.34;117381;1183;22986;-50
2022/06/18 05:03:05;;;;;;;13.10;11.80;;;;;;;21.02;58.73;100661.23;117361;1183;23548;-51
2022/06/18 05:05:33;;;;;;;12.50;11.30;;;;;;;21.02;58.64;100664.67;117433;1182;21840;-50
2022/06/18 05:08:00;;;;;;;13.50;11.70;;;;;;;21.02;58.78;100665.17;117467;1185;23469;-55
2022/06/18 05:10:27;;;;;;;12.00;10.90;;;;;;;21.07;58.74;100666.34;117444;1186;21862;-50
2022/06/18 05:12:54;;;;;;;12.10;11.00;;;;;;;21.18;58.99;100667.55;117408;1186;21855;-55
2022/06/18 05:15:21;;;;;;;11.90;10.50;;;;;;;21.38;58.99;100662.27;117352;1186;22970;-50
2022/06/18 05:17:49;;;;;;;10.30;9.40;;;;;;;21.55;58.98;100663.29;117422;1183;23577;-49
2022/06/18 05:20:21;;;;;;;9.80;8.80;;;;;;;21.64;58.67;100664.27;117356;1185;24155;-56
2022/06/18 05:22:49;;;;;;;9.90;8.90;;;;;;;21.71;58.51;100666.58;117455;1186;24702;-51
2022/06/18 05:25:16;;;;;;;8.60;7.70;;;;;;;21.78;58.30;100672.50;117422;1185;23510;-56
2022/06/18 05:27:43;;;;;;;9.20;7.90;;;;;;;21.81;58.09;100672.84;117318;1187;22119;-52
2022/06/18 05:30:12;;;;;;;8.80;7.90;;;;;;;21.80;57.94;100676.83;117457;1186;21849;-56
2022/06/18 05:32:39;;;;;;;9.10;8.00;;;;;;;21.75;57.81;100683.17;117359;1183;23560;-55
2022/06/18 05:35:07;;;;;;;10.00;7.90;;;;;;;21.65;57.59;100686.70;117348;1183;22922;-56
2022/06/18 05:37:34;;;;;;;9.00;8.20;;;;;;;21.54;57.56;100695.33;117377;1183;23566;-56
2022/06/18 05:40:02;;;;;;;8.30;7.40;;;;;;;21.45;57.64;100697.36;117232;1186;21893;-52
2022/06/18 05:42:30;;;;;;;8.10;7.30;;;;;;;21.43;57.57;100701.10;117434;1183;22740;-55
2022/06/18 05:44:57;;;;;;;7.80;7.00;;;;;;;21.38;57.50;100708.30;117308;1184;22912;-56
2022/06/18 05:47:26;;;;;;;7.20;6.50;;;;;;;21.28;57.62;100712.73;117438;1182;23466;-51
2022/06/18 05:49:53;;;;;;;9.40;7.60;;;;;;;21.21;57.56;100716.14;117407;1183;22890;-52
2022/06/18 05:52:20;;;;;;;8.10;6.90;;;;;;;21.15;57.60;100721.09;117347;1186;22908;-56
2022/06/18 05:54:47;;;;;;;8.30;5.90;;;;;;;21.08;57.64;100720.71;117408;1182;22940;-51
2022/06/18 05:57:14;;;;;;;6.40;5.80;;;;;;;20.99;57.57;100722.77;117376;1180;22941;-51
2022/06/18 05:59:42;;;;;;;8.30;5.70;;;;;;;20.92;57.53;100722.73;117384;1185;21944;-55
2022/06/18 06:02:13;;;;;;;8.20;5.90;;;;;;;20.93;57.60;100722.88;117402;1185;22938;-54
2022/06/18 06:04:42;;;;;;;7.40;5.60;;;;;;;21.11;57.92;100722.14;117581;1186;21852;-50
2022/06/18 06:07:16;;;;;;;6.40;5.40;;;;;;;21.34;57.81;100718.50;117494;1185;21889;-50
2022/06/18 06:12:29;;;;;;;5.40;4.80;;;;;;;21.51;57.38;100716.55;117379;1182;22924;-56
2022/06/18 06:14:56;;;;;;;5.40;4.90;;;;;;;21.56;57.46;100713.77;117329;1182;23541;-51
2022/06/18 06:17:25;;;;;;;5.30;4.50;;;;;;;21.60;57.48;100717.11;117337;1183;22906;-56
2022/06/18 06:19:58;;;;;;;11.60;8.10;;;;;;;21.72;57.60;100720.45;117467;1183;23675;-51
2022/06/18 06:22:25;;;;;;;8.30;5.70;;;;;;;21.87;57.73;100721.25;117370;1185;21845;-56
2022/06/18 06:24:53;;;;;;;6.20;5.00;;;;;;;22.04;57.53;100720.34;117390;1183;24220;-51
2022/06/18 06:27:20;;;;;;;6.00;4.60;;;;;;;22.16;57.42;100722.21;117225;1182;23329;-56
2022/06/18 06:29:48;;;;;;;5.50;4.70;;;;;;;22.25;57.29;100721.16;117389;1185;24218;-51
2022/06/18 06:32:15;;;;;;;5.60;5.10;;;;;;;22.32;57.07;100721.48;117276;1183;24310;-56
2022/06/18 06:34:43;;;;;;;6.90;4.60;;;;;;;22.35;56.94;100722.76;117275;1185;21852;-52
2022/06/18 06:37:10;;;;;;;6.00;4.80;;;;;;;22.36;56.61;100726.45;117366;1182;22368;-57
2022/06/18 06:39:37;;;;;;;7.60;5.30;;;;;;;22.35;56.52;100726.52;117344;1186;22824;-56
2022/06/18 06:42:05;;;;;;;8.10;4.80;;;;;;;22.43;56.60;100725.91;117384;1186;22830;-56
2022/06/18 06:44:32;;;;;;;5.70;4.30;;;;;;;22.59;56.63;100723.61;117517;1183;22803;-50
2022/06/18 06:47:00;;;;;;;5.60;4.80;;;;;;;22.66;56.50;100724.24;117319;1181;22922;-50
2022/06/18 06:49:27;;;;;;;11.80;8.50;;;;;;;22.57;56.78;100720.29;117327;1183;23493;-51
2022/06/18 06:51:54;;;;;;;10.20;8.30;;;;;;;22.68;56.42;100716.10;117383;1186;23540;-51
2022/06/18 06:54:22;;;;;;;6.90;6.00;;;;;;;22.75;56.24;100717.33;117419;1184;21910;-50
2022/06/18 06:59:39;;;;;;;4.80;4.30;;;;;;;22.84;56.12;100713.19;117319;1185;21851;-55
2022/06/18 07:02:14;;;;;;;4.90;3.90;;;;;;;22.96;56.18;100707.11;117415;1186;23353;-51
2022/06/18 07:04:41;;;;;;;5.50;3.90;;;;;;;23.13;56.21;100706.31;117369;1186;22724;-57
2022/06/18 07:07:12;;;;;;;6.10;3.90;;;;;;;23.28;56.24;100703.27;117496;1186;23685;-57
2022/06/18 07:09:39;;;;;;;4.10;3.40;;;;;;;23.47;56.12;100706.10;117416;1186;23489;-51
2022/06/18 07:12:08;;;;;;;4.30;3.60;;;;;;;23.67;56.09;100707.73;117361;1186;22620;-55
2022/06/18 07:14:36;;;;;;;5.70;3.40;;;;;;;23.93;55.90;100705.77;117407;1186;21851;-51
2022/06/18 07:17:04;;;;;;;4.30;3.30;;;;;;;24.16;55.78;100710.63;117431;1182;21844;-56
2022/06/18 07:19:31;;;;;;;3.80;3.40;;;;;;;24.30;55.47;100706.83;117444;1180;22913;-51
2022/06/18 07:21:58;;;;;;;4.10;3.70;;;;;;;24.29;55.01;100710.32;117363;1182;23999;-51
2022/06/18 07:24:25;;;;;;;5.40;3.50;;;;;;;24.26;54.94;100716.98;117427;1183;22915;-56
2022/06/18 07:26:52;;;;;;;5.20;3.70;;;;;;;24.26;54.93;100716.98;117405;1188;21890;-51
2022/06/18 07:29:21;;;;;;;3.60;3.20;;;;;;;24.26;54.76;100727.17;117380;1182;21848;-56
2022/06/18 07:31:49;;;;;;;5.20;3.50;;;;;;;24.20;54.80;100728.44;117398;1186;21961;-56
2022/06/18 07:34:16;;;;;;;4.60;3.20;;;;;;;24.23;54.98;100727.92;117403;1186;22915;-51
2022/06/18 07:36:43;;;;;;;4.40;3.70;;;;;;;24.32;55.02;100729.83;117354;1187;21898;-51
2022/06/18 07:39:10;;;;;;;4.50;3.30;;;;;;;24.35;54.54;100726.20;117434;1185;21859;-57
2022/06/18 07:41:42;;;;;;;5.20;3.30;;;;;;;24.33;54.34;100723.63;117237;1188;21865;-56
2022/06/18 07:44:09;;;;;;;5.60;2.80;;;;;;;24.31;54.16;100720.76;117422;1186;23579;-52
2022/06/18 07:46:36;;;;;;;3.90;2.80;;;;;;;24.31;53.94;100719.85;117195;1186;21949;-53
2022/06/18 07:49:05;;;;;;;10.60;3.60;;;;;;;24.33;54.22;100721.86;117195;1185;21845;-53
2022/06/18 07:51:32;;;;;;;18.30;5.90;;;;;;;24.43;54.36;100717.44;117412;1184;23002;-56
2022/06/18 07:53:59;;;;;;;14.50;5.10;;;;;;;24.60;54.15;100719.80;117362;1186;22896;-56
2022/06/18 07:56:27;;;;;;;5.20;2.90;;;;;;;24.72;53.83;100720.10;117388;1182;22857;-53
2022/06/18 07:58:54;;;;;;;5.90;4.80;;;;;;;24.81;53.72;100718.27;117429;1186;21850;-55
2022/06/18 08:01:21;;;;;;;4.80;3.90;;;;;;;24.88;53.78;100718.86;117356;1185;21849;-53
2022/06/18 08:03:48;;;;;;;4.10;3.30;;;;;;;24.98;53.89;100719.05;117461;1182;23537;-56
2022/06/18 08:06:16;;;;;;;6.20;3.80;;;;;;;25.18;54.02;100717.02;117344;1186;21858;-53
2022/06/18 08:08:43;;;;;;;45.10;37.60;;;;;;;25.43;54.04;100712.83;117390;1186;22913;-53
2022/06/18 08:11:13;;;;;;;47.40;40.50;;;;;;;25.74;54.23;100709.20;117352;1183;23602;-56
2022/06/18 08:13:40;;;;;;;323.20;270.50;;;;;;;26.08;53.88;100710.96;117548;1184;21852;-52
2022/06/18 08:16:07;;;;;;;87.40;69.70;;;;;;;26.27;53.54;100711.43;117225;1182;23570;-56
2022/06/18 08:18:34;;;;;;;17.40;14.60;;;;;;;26.51;53.67;100716.81;117512;1184;22304;-56
2022/06/18 08:21:09;;;;;;;9.40;6.10;;;;;;;26.86;53.41;100716.66;117295;1185;21926;-56
2022/06/18 08:23:37;;;;;;;5.00;4.10;;;;;;;27.12;53.15;100715.71;117269;1176;22890;-51
2022/06/18 08:26:06;;;;;;;5.60;3.90;;;;;;;27.34;53.19;100716.58;117122;1183;22916;-56
2022/06/18 08:28:33;;;;;;;4.30;2.90;;;;;;;27.56;53.27;100711.95;117342;1185;21860;-56
2022/06/18 08:31:01;;;;;;;10.90;3.80;;;;;;;27.81;52.41;100713.83;117147;1186;22805;-56
2022/06/18 08:33:29;;;;;;;6.80;3.40;;;;;;;27.89;51.77;100711.37;117378;1185;21858;-56
2022/06/18 08:35:58;;;;;;;73.60;20.80;;;;;;;27.80;51.26;100709.05;117465;1182;21852;-56
2022/06/18 08:38:25;;;;;;;6.30;3.20;;;;;;;27.79;50.82;100709.45;117396;1185;21848;-56
2022/06/18 08:41:01;;;;;;;149.10;30.40;;;;;;;27.78;50.59;100709.02;117432;1186;21860;-53
2022/06/18 08:43:49;;;;;;;162.40;41.60;;;;;;;27.74;50.76;100708.58;117343;1185;21855;-56
2022/06/18 08:46:54;;;;;;;118.80;30.30;;;;;;;27.85;51.37;100707.91;117402;1186;21863;-52
2022/06/18 08:49:36;;;;;;;22.30;6.20;;;;;;;28.23;51.39;100704.67;117445;1182;22567;-55
2022/06/18 08:52:34;;;;;;;6.50;3.20;;;;;;;28.53;51.24;100697.33;117328;1183;22886;-56
2022/06/18 08:55:22;;;;;;;5.10;2.50;;;;;;;28.80;51.05;100692.09;117524;1182;21831;-57
2022/06/18 08:58:21;;;;;;;4.00;2.10;;;;;;;29.22;51.07;100687.77;117257;1184;23541;-53
2022/06/18 09:00:57;;;;;;;2.90;2.10;;;;;;;29.66;50.40;100690.38;117202;1183;23435;-56
2022/06/18 09:04:22;;;;;;;40.50;35.60;;;;;;;29.86;49.98;100690.23;117317;1185;21862;-55
2022/06/18 09:07:04;;;;;;;5.00;4.10;;;;;;;29.76;48.08;100687.52;117278;1185;22890;-56
2022/06/18 09:10:04;;;;;;;4.50;2.20;;;;;;;29.47;47.73;100687.16;117260;1182;22987;-54
2022/06/18 09:12:33;;;;;;;4.30;2.20;;;;;;;29.27;48.50;100690.29;117348;1186;21818;-55
2022/06/18 09:15:22;;;;;;;2.60;1.40;;;;;;;29.20;48.21;100691.43;117435;1186;21864;-57
2022/06/18 09:18:13;;;;;;;2.90;2.00;;;;;;;28.99;47.53;100690.32;117279;1183;23461;-55
2022/06/18 09:21:02;;;;;;;2.50;1.80;;;;;;;28.76;47.94;100694.57;117275;1183;22931;-55
2022/06/18 09:23:31;;;;;;;2.40;1.60;;;;;;;28.80;48.38;100692.80;117395;1183;23576;-56
2022/06/18 09:25:59;;;;;;;2.40;1.70;;;;;;;29.13;48.49;100690.76;117429;1185;22924;-55
2022/06/18 09:28:40;;;;;;;4.00;1.70;;;;;;;29.33;47.45;100689.53;117329;1183;23550;-54
2022/06/18 09:31:16;;;;;;;3.40;1.60;;;;;;;29.26;47.78;100692.20;117395;1184;21851;-57
2022/06/18 09:34:11;;;;;;;2.00;1.30;;;;;;;29.25;47.90;100693.16;117329;1183;21951;-57
2022/06/18 09:36:41;;;;;;;2.80;1.40;;;;;;;29.10;47.53;100702.70;117357;1186;22924;-57
2022/06/18 09:39:21;;;;;;;2.50;1.50;;;;;;;28.99;47.64;100705.65;117368;1182;22933;-56
2022/06/18 09:41:53;;;;;;;2.50;1.20;;;;;;;28.74;47.46;100707.16;117339;1182;21969;-55
2022/06/18 09:44:43;;;;;;;1.60;1.10;;;;;;;28.67;47.60;100702.92;117418;1182;21852;-55
2022/06/18 09:47:18;;;;;;;;;;;;;;;28.82;47.25;100704.42;117405;1185;22911;-55
2022/06/18 09:49:45;;;;;;;2.50;1.30;;;;;;;28.76;46.63;100703.22;117371;1182;23540;-55
2022/06/18 09:52:15;;;;;;;3.40;1.40;;;;;;;28.63;46.76;100706.09;117451;1182;22906;-57
2022/06/18 09:54:46;;;;;;;2.60;1.20;;;;;;;28.51;46.88;100705.29;117199;1183;21837;-56
2022/06/18 09:57:15;;;;;;;2.10;1.20;;;;;;;28.50;47.06;100702.47;117446;1185;22611;-54
2022/06/18 09:59:49;;;;;;;3.10;1.40;;;;;;;28.69;46.07;100707.79;117410;1186;21853;-56
2022/06/18 10:02:18;;;;;;;1.90;1.20;;;;;;;28.72;46.06;100711.86;117346;1184;22000;-54
2022/06/18 10:07:33;;;;;;;2.20;1.60;;;;;;;28.51;45.72;100715.95;117233;1184;22918;-55
2022/06/18 10:10:14;;;;;;;35.90;32.00;;;;;;;28.47;46.27;100717.56;117983;1184;21820;-56
2022/06/18 10:12:55;;;;;;;19.10;15.40;;;;;;;28.50;46.18;100715.67;117591;1186;22918;-54
2022/06/18 10:15:23;;;;;;;10.70;7.30;;;;;;;28.69;46.36;100717.52;117395;1181;23566;-54
2022/06/18 10:18:07;;;;;;;9.00;6.40;;;;;;;29.00;46.45;100711.15;117359;1186;21959;-53
2022/06/18 10:20:54;;;;;;;18.90;15.10;;;;;;;29.23;44.62;100705.59;117390;1182;23554;-55
2022/06/18 10:23:44;;;;;;;31.10;5.40;;;;;;;29.20;44.18;100708.73;117446;1186;21849;-56
2022/06/18 10:26:37;;;;;;;174.20;157.30;;;;;;;29.29;44.95;100713.02;117361;1183;23509;-56
2022/06/18 10:29:49;;;;;;;271.40;241.10;;;;;;;29.38;44.97;100716.61;117360;1184;23647;-53
2022/06/18 10:32:37;;;;;;;17.90;16.00;;;;;;;29.38;45.38;100720.22;117162;1186;23722;-57
2022/06/18 10:35:26;;;;;;;10.90;6.50;;;;;;;29.38;45.47;100722.78;117371;1186;21852;-54
2022/06/18 10:38:18;;;;;;;4.10;2.70;;;;;;;29.24;45.44;100719.80;117389;1185;22774;-54
2022/06/18 10:40:46;;;;;;;2.10;1.70;;;;;;;29.07;45.65;100716.01;117339;1183;22173;-54
2022/06/18 10:43:54;;;;;;;1.50;1.30;;;;;;;28.98;45.91;100720.58;117410;1182;23550;-52
2022/06/18 10:46:21;;;;;;;1.30;1.20;;;;;;;28.89;45.75;100723.45;117510;1185;23358;-56
2022/06/18 10:48:53;;;;;;;2.80;1.10;;;;;;;28.98;45.56;100720.21;117502;1185;22942;-56
2022/06/18 10:51:26;;;;;;;1.60;1.00;;;;;;;29.21;45.15;100718.05;117411;1182;21849;-53
2022/06/18 10:53:58;;;;;;;1.40;1.10;;;;;;;29.57;45.42;100719.19;117454;1182;22638;-53
2022/06/18 10:56:33;;;;;;;3.20;1.10;;;;;;;29.84;45.29;100717.73;117400;1185;21862;-53
2022/06/18 10:59:02;;;;;;;4.60;0.80;;;;;;;30.03;45.00;100717.80;117328;1185;21853;-56
2022/06/18 11:01:34;;;;;;;1.50;0.80;;;;;;;30.23;44.77;100718.63;117421;1182;22913;-57
2022/06/18 11:04:05;;;;;;;1.50;1.00;;;;;;;30.32;44.28;100713.09;117359;1184;22610;-58
2022/06/18 11:06:32;;;;;;;2.10;1.10;;;;;;;30.35;43.82;100715.23;117519;1182;23564;-59
2022/06/18 11:09:01;;;;;;;16.40;3.20;;;;;;;30.23;43.57;100712.67;117126;1183;21855;-53
2022/06/18 11:11:32;;;;;;;2.30;1.10;;;;;;;30.02;43.57;100711.08;118497;1183;21858;-56
2022/06/18 11:14:16;;;;;;;1.60;0.90;;;;;;;30.02;44.10;100707.33;117364;1183;22950;-57
2022/06/18 11:16:51;;;;;;;3.40;1.00;;;;;;;29.99;43.73;100705.39;117301;1186;22972;-56
2022/06/18 11:19:19;;;;;;;;;;;;;;;30.02;43.90;100705.88;117388;1186;23442;-53
2022/06/18 11:21:46;;;;;;;19.70;17.00;;;;;;;30.07;43.44;100705.39;117377;1183;23675;-53
2022/06/18 11:24:16;;;;;;;7.10;2.60;;;;;;;30.12;43.30;100706.36;117270;1186;21871;-56
2022/06/18 11:26:55;;;;;;;2.70;1.80;;;;;;;30.12;42.86;100703.88;117445;1185;23547;-53
2022/06/18 11:29:35;;;;;;;1.90;1.30;;;;;;;30.06;43.18;100703.51;117397;1182;22915;-56
2022/06/18 11:32:14;;;;;;;;;;;;;;;30.10;43.40;100699.52;117368;1183;23449;-55
2022/06/18 11:34:52;;;;;;;2.40;1.00;;;;;;;30.46;43.34;100696.06;117313;1185;21910;-53
2022/06/18 11:37:26;;;;;;;4.80;1.50;;;;;;;30.73;43.07;100694.17;117391;1184;22979;-55
2022/06/18 11:40:16;;;;;;;3.50;1.10;;;;;;;30.83;43.04;100695.46;117218;1188;21867;-56
2022/06/18 11:43:06;;;;;;;2.20;1.00;;;;;;;31.02;42.65;100691.70;117341;1183;21973;-53
2022/06/18 11:45:52;;;;;;;13.20;11.10;;;;;;;31.03;42.55;100689.58;117431;1183;21882;-56
2022/06/18 11:48:37;;;;;;;16.80;15.20;;;;;;;31.05;42.70;100694.30;117253;1183;22159;-53
2022/06/18 11:51:25;;;;;;;6.50;4.90;;;;;;;30.96;42.43;100696.23;117259;1184;24271;-55